Time;durP1;ratioP1;P1;durP2;ratioP2;P2;SDS_P1;SDS_P2;PMS_P1;PMS_P2;Temp;Humidity;BMP_temperature;BMP_pressure;BME280_temperature;BME280_humidity;BME280_pressure;Samples;Min_cycle;Max_cycle;Signal;HPM_P1;HPM_P2
2023/06/09 00:01:44;;;;;;;9.85;4.47;;;;;;;-142.57;82.51;115900.28;5056544;28;20029;-80
2023/06/09 00:04:12;;;;;;;10.70;4.20;;;;;;;-142.57;81.75;115900.28;5056135;28;20344;-82
2023/06/09 00:06:39;;;;;;;6.75;3.83;;;;;;;-142.57;81.17;115900.28;5054545;28;20044;-81
2023/06/09 00:09:06;;;;;;;7.18;3.97;;;;;;;-142.57;82.27;115900.28;5056336;28;20037;-80
2023/06/09 00:11:34;;;;;;;6.68;4.28;;;;;;;-142.57;82.99;115900.28;5055680;28;20504;-80
2023/06/09 00:14:00;;;;;;;10.98;5.53;;;;;;;-142.57;83.03;115900.28;5056695;28;20108;-80
2023/06/09 00:16:28;;;;;;;9.75;5.78;;;;;;;-142.57;83.05;115900.28;5055455;28;20123;-79
2023/06/09 00:18:57;;;;;;;9.85;6.70;;;;;;;-142.57;83.81;115900.28;5056154;28;20112;-81
2023/06/09 00:21:25;;;;;;;13.02;8.38;;;;;;;-142.57;87.26;115900.28;5055903;28;20106;-80
2023/06/09 00:23:52;;;;;;;15.73;8.60;;;;;;;-142.57;88.56;115900.28;5054665;28;20127;-80
2023/06/09 00:26:18;;;;;;;13.63;9.02;;;;;;;-142.57;89.65;115900.28;5055888;28;20075;-79
2023/06/09 00:28:44;;;;;;;14.88;8.80;;;;;;;-142.57;90.02;115900.28;5055760;28;20474;-80
2023/06/09 00:31:10;;;;;;;13.05;8.90;;;;;;;-142.57;89.88;115900.28;5055990;28;20041;-80
2023/06/09 00:33:36;;;;;;;11.35;8.50;;;;;;;-142.57;91.46;115900.28;5055528;28;20107;-81
2023/06/09 00:36:02;;;;;;;11.55;7.75;;;;;;;-142.57;92.79;115900.28;5054352;28;20114;-81
2023/06/09 00:38:27;;;;;;;13.75;7.60;;;;;;;-142.57;93.21;115900.28;5054210;28;20171;-80
2023/06/09 00:40:53;;;;;;;12.40;7.85;;;;;;;-142.57;92.00;115900.28;5055854;28;20041;-81
2023/06/09 00:43:19;;;;;;;12.98;8.13;;;;;;;-142.57;91.42;115900.28;5052938;28;20111;-80
2023/06/09 00:45:45;;;;;;;18.65;8.32;;;;;;;-142.57;93.78;115900.28;5055594;28;20037;-80
2023/06/09 00:48:11;;;;;;;12.70;8.90;;;;;;;-142.57;96.08;115900.28;5055385;28;20033;-80
2023/06/09 00:50:38;;;;;;;12.52;7.97;;;;;;;-142.57;97.33;115900.28;5055297;28;20040;-80
2023/06/09 00:53:04;;;;;;;11.38;7.97;;;;;;;-142.57;99.53;115900.28;5055460;28;20025;-79
2023/06/09 00:55:31;;;;;;;9.30;6.55;;;;;;;-142.57;100.00;115900.28;5079690;28;20490;-79
2023/06/09 00:58:00;;;;;;;10.95;5.97;;;;;;;-142.57;100.00;115900.28;5070933;28;20029;-79
2023/06/09 01:00:27;;;;;;;8.10;5.60;;;;;;;-142.57;100.00;115900.28;5055355;28;20437;-80
2023/06/09 01:03:00;;;;;;;11.57;5.32;;;;;;;-142.57;100.00;115900.28;5053460;28;20071;-80
2023/06/09 01:05:37;;;;;;;11.57;5.22;;;;;;;-142.57;100.00;115900.28;5055156;28;20041;-78
2023/06/09 01:08:28;;;;;;;11.45;5.40;;;;;;;-142.57;100.00;115900.28;5055183;28;20041;-80
2023/06/09 01:11:09;;;;;;;6.88;5.15;;;;;;;-142.57;100.00;115900.28;5054703;28;20033;-81
2023/06/09 01:14:09;;;;;;;10.93;5.05;;;;;;;-142.57;100.00;115900.28;5054779;28;20054;-80
2023/06/09 01:16:41;;;;;;;7.68;5.43;;;;;;;-142.57;100.00;115900.28;5055039;28;20036;-79
2023/06/09 01:19:20;;;;;;;6.80;5.13;;;;;;;-142.57;100.00;115900.28;5054853;28;20120;-79
2023/06/09 01:21:50;;;;;;;9.15;5.55;;;;;;;-142.57;100.00;115900.28;5070287;28;20048;-79
2023/06/09 01:24:19;;;;;;;8.52;5.25;;;;;;;-142.57;100.00;115900.28;5070029;28;20075;-80
2023/06/09 01:26:50;;;;;;;10.60;5.70;;;;;;;-142.57;100.00;115900.28;5054745;28;20048;-79
2023/06/09 01:29:19;;;;;;;10.45;5.72;;;;;;;-142.57;100.00;115900.28;5053339;28;20062;-79
2023/06/09 01:31:48;;;;;;;12.70;5.53;;;;;;;-142.57;100.00;115900.28;5053044;28;20454;-80
2023/06/09 01:34:14;;;;;;;8.38;5.28;;;;;;;-142.57;100.00;115900.28;5054587;28;20032;-80
2023/06/09 01:36:41;;;;;;;10.05;5.93;;;;;;;-142.57;100.00;115900.28;5054878;28;20037;-80
2023/06/09 01:39:07;;;;;;;8.40;5.60;;;;;;;-142.57;100.00;115900.28;5054383;28;20179;-80
2023/06/09 01:41:33;;;;;;;10.05;5.28;;;;;;;-142.57;100.00;115900.28;5052764;28;20067;-80
2023/06/09 01:43:58;;;;;;;9.25;5.60;;;;;;;-142.57;100.00;115900.28;5054362;28;20041;-80
2023/06/09 01:46:24;;;;;;;7.72;5.70;;;;;;;-142.57;100.00;115900.28;5052712;28;20039;-79
2023/06/09 01:48:49;;;;;;;8.00;6.00;;;;;;;-142.57;100.00;115900.28;5069626;28;20159;-81
2023/06/09 01:51:36;;;;;;;7.80;5.45;;;;;;;-142.57;100.00;115900.28;5052853;28;20089;-80
2023/06/09 01:54:10;;;;;;;10.93;5.35;;;;;;;-142.57;100.00;115900.28;5055674;28;20132;-80
2023/06/09 01:56:44;;;;;;;8.63;5.10;;;;;;;-142.57;100.00;115900.28;5068368;28;20033;-79
2023/06/09 01:59:16;;;;;;;9.75;5.75;;;;;;;-142.57;100.00;115900.28;5053533;28;20029;-79
2023/06/09 02:01:44;;;;;;;9.35;5.93;;;;;;;-142.57;100.00;115900.28;5052827;28;20041;-80
2023/06/09 02:04:12;;;;;;;7.53;4.93;;;;;;;-142.57;100.00;115900.28;5052638;28;20067;-79
2023/06/09 02:06:38;;;;;;;11.23;4.82;;;;;;;-142.57;100.00;115900.28;5054048;28;20037;-79
2023/06/09 02:09:04;;;;;;;9.82;3.95;;;;;;;-142.57;100.00;115900.28;5052231;28;20564;-81
2023/06/09 02:11:30;;;;;;;7.32;3.80;;;;;;;-142.57;100.00;115900.28;5052688;28;20037;-79
2023/06/09 02:13:56;;;;;;;8.90;4.13;;;;;;;-142.57;100.00;115900.28;5053680;28;20029;-80
2023/06/09 02:16:22;;;;;;;5.68;3.63;;;;;;;-142.57;100.00;115900.28;5053729;28;20029;-80
2023/06/09 02:18:51;;;;;;;9.70;4.65;;;;;;;-142.57;100.00;115900.28;5052288;28;20040;-81
2023/06/09 02:21:16;;;;;;;7.03;3.92;;;;;;;-142.57;100.00;115900.28;5052213;28;20490;-80
2023/06/09 02:23:42;;;;;;;8.73;3.20;;;;;;;-142.57;100.00;115900.28;5053653;28;20127;-80
2023/06/09 02:26:07;;;;;;;4.35;3.65;;;;;;;-142.57;100.00;115900.28;5053370;28;20096;-79
2023/06/09 02:28:34;;;;;;;13.35;3.72;;;;;;;-142.57;100.00;115900.28;5053410;28;20021;-79
2023/06/09 02:31:00;;;;;;;5.45;3.70;;;;;;;-142.57;100.00;115900.28;5053848;28;20029;-79
2023/06/09 02:33:26;;;;;;;6.05;3.47;;;;;;;-142.57;100.00;115900.28;5053127;28;20484;-80
2023/06/09 02:35:53;;;;;;;7.20;3.47;;;;;;;-142.57;100.00;115900.28;5051873;28;20033;-80
2023/06/09 02:38:21;;;;;;;8.82;3.47;;;;;;;-142.57;100.00;115900.28;5051765;28;20033;-79
2023/06/09 02:40:50;;;;;;;7.45;3.65;;;;;;;-142.57;100.00;115900.28;5053157;28;20025;-79
2023/06/09 02:43:16;;;;;;;5.20;3.65;;;;;;;-142.57;100.00;115900.28;5051406;28;20090;-79
2023/06/09 02:45:43;;;;;;;6.22;3.92;;;;;;;-142.57;100.00;115900.28;5053542;28;20507;-80
2023/06/09 02:48:08;;;;;;;8.60;4.38;;;;;;;-142.57;100.00;115900.28;5053507;28;20125;-80
2023/06/09 02:50:35;;;;;;;9.48;4.60;;;;;;;-142.57;100.00;115900.28;5068573;28;20036;-81
2023/06/09 02:53:05;;;;;;;5.88;4.38;;;;;;;-142.57;100.00;115900.28;5051891;28;20034;-81
2023/06/09 02:55:33;;;;;;;10.85;5.05;;;;;;;-142.57;100.00;115900.28;5051803;28;20035;-81
2023/06/09 02:57:58;;;;;;;9.00;5.20;;;;;;;-142.57;100.00;115900.28;5052191;28;20439;-79
2023/06/09 03:00:26;;;;;;;9.45;5.15;;;;;;;-142.57;100.00;115900.28;5051658;28;20485;-83
2023/06/09 03:02:54;;;;;;;7.88;5.07;;;;;;;-142.57;100.00;115900.28;5051480;28;20045;-79
2023/06/09 03:05:24;;;;;;;8.90;4.28;;;;;;;-142.57;99.70;115900.28;5051269;28;20029;-81
2023/06/09 03:07:51;;;;;;;10.75;5.05;;;;;;;-142.57;99.15;115900.28;5051056;28;20033;-79
2023/06/09 03:10:18;;;;;;;13.30;4.88;;;;;;;-142.57;99.86;115900.28;5051288;28;20037;-81
2023/06/09 03:12:46;;;;;;;8.52;5.03;;;;;;;-142.57;98.41;115900.28;5051124;28;20037;-80
2023/06/09 03:15:12;;;;;;;11.35;5.15;;;;;;;-142.57;97.04;115900.28;5051685;28;20479;-81
2023/06/09 03:17:41;;;;;;;7.40;5.47;;;;;;;-142.57;98.06;115900.28;5051607;28;20082;-79
2023/06/09 03:20:07;;;;;;;8.00;5.25;;;;;;;-142.57;98.80;115900.28;5068159;28;20033;-82
2023/06/09 03:22:33;;;;;;;7.25;5.30;;;;;;;-142.57;99.12;115900.28;5051527;28;20040;-81
2023/06/09 03:24:59;;;;;;;9.52;5.25;;;;;;;-142.57;98.81;115900.28;5051663;28;20110;-79
2023/06/09 03:27:25;;;;;;;9.38;4.30;;;;;;;-142.57;98.30;115900.28;5051681;28;20060;-80
2023/06/09 03:29:51;;;;;;;7.05;4.20;;;;;;;-142.57;97.48;115900.28;5051625;28;20182;-81
2023/06/09 03:32:16;;;;;;;6.20;4.22;;;;;;;-142.57;97.27;115900.28;5051779;28;20067;-80
2023/06/09 03:34:42;;;;;;;7.47;3.92;;;;;;;-142.57;97.52;115900.28;5051207;28;20495;-79
2023/06/09 03:37:09;;;;;;;6.97;4.60;;;;;;;-142.57;98.42;115900.28;5051035;28;20478;-79
2023/06/09 03:39:35;;;;;;;15.48;4.85;;;;;;;-142.57;99.70;115900.28;5050680;28;20470;-81
2023/06/09 03:42:00;;;;;;;10.63;4.95;;;;;;;-142.57;100.00;115900.28;5051444;28;20095;-77
2023/06/09 03:44:26;;;;;;;8.93;4.72;;;;;;;-142.57;99.71;115900.28;5048206;28;20034;-79
2023/06/09 03:46:53;;;;;;;9.45;5.93;;;;;;;-142.57;99.86;115900.28;5031160;28;20109;-79
2023/06/09 03:49:19;;;;;;;7.63;5.35;;;;;;;-142.57;98.38;115900.28;5032650;28;20064;-79
2023/06/09 03:51:45;;;;;;;13.10;5.47;;;;;;;-142.57;99.03;115900.28;5031516;28;20030;-78
2023/06/09 03:54:11;;;;;;;8.63;5.28;;;;;;;-142.57;97.37;115900.28;5031067;28;20029;-78
2023/06/09 03:56:37;;;;;;;11.43;4.82;;;;;;;-142.57;95.76;115900.28;5031235;28;20128;-80
2023/06/09 03:59:02;;;;;;;7.22;4.90;;;;;;;-142.57;95.53;115900.28;5032717;28;20037;-78
2023/06/09 04:01:30;;;;;;;8.82;4.75;;;;;;;-142.57;96.58;115900.28;5030914;28;20034;-80
2023/06/09 04:03:56;;;;;;;8.07;5.32;;;;;;;-142.57;96.34;115900.28;5030856;28;20478;-79
2023/06/09 04:06:22;;;;;;;15.23;4.88;;;;;;;-142.57;96.04;115900.28;5030992;28;20036;-79
2023/06/09 04:08:48;;;;;;;19.42;4.95;;;;;;;-142.57;97.71;115900.28;5031122;28;20036;-79
2023/06/09 04:11:14;;;;;;;19.15;5.70;;;;;;;-142.57;99.50;115900.28;5031084;28;20153;-78
2023/06/09 04:13:39;;;;;;;11.15;5.35;;;;;;;-142.57;100.00;115900.28;5030879;28;20124;-79
2023/06/09 04:16:05;;;;;;;15.45;5.65;;;;;;;-142.57;100.00;115900.28;5039231;28;20386;-81
2023/06/09 04:18:31;;;;;;;11.85;5.63;;;;;;;-142.57;100.00;115900.28;5055650;28;20033;-79
2023/06/09 04:20:57;;;;;;;13.43;6.40;;;;;;;-142.57;100.00;115900.28;5054192;28;20033;-81
2023/06/09 04:23:22;;;;;;;9.05;5.88;;;;;;;-142.57;100.00;115900.28;5051582;28;20041;-80
2023/06/09 04:25:49;;;;;;;12.02;5.68;;;;;;;-142.57;99.08;115900.28;5054199;28;20120;-80
2023/06/09 04:28:17;;;;;;;15.05;5.68;;;;;;;-142.57;96.96;115900.28;5054731;28;20033;-80
2023/06/09 04:30:45;;;;;;;13.00;5.95;;;;;;;-142.57;95.63;115900.28;5054177;28;20061;-79
2023/06/09 04:33:12;;;;;;;10.63;5.63;;;;;;;-142.57;93.60;115900.28;5054530;28;20037;-80
2023/06/09 04:35:41;;;;;;;7.63;5.07;;;;;;;-142.57;92.81;115900.28;5054561;28;20441;-81
2023/06/09 04:38:09;;;;;;;12.93;5.95;;;;;;;-142.57;91.79;115900.28;5055638;28;20112;-80
2023/06/09 04:40:38;;;;;;;11.88;4.88;;;;;;;-142.57;90.23;115900.28;5053986;28;20032;-79
2023/06/09 04:43:07;;;;;;;7.53;4.30;;;;;;;-142.57;89.59;115900.28;5055497;28;20036;-81
2023/06/09 04:45:34;;;;;;;10.00;4.10;;;;;;;-142.57;88.39;115900.28;5054284;28;20037;-78
2023/06/09 04:48:05;;;;;;;8.10;3.95;;;;;;;-142.57;86.30;115900.28;5056391;28;20551;-79
2023/06/09 04:50:33;;;;;;;9.85;4.40;;;;;;;-142.57;86.08;115900.28;5069216;28;20394;-80
2023/06/09 04:53:03;;;;;;;9.65;4.70;;;;;;;-142.57;84.74;115900.28;5054582;28;20049;-79
2023/06/09 04:55:31;;;;;;;11.10;4.97;;;;;;;-142.57;84.35;115900.28;5053861;28;20486;-79
2023/06/09 04:57:57;;;;;;;8.88;4.65;;;;;;;-142.57;86.74;115900.28;5054914;28;20076;-79
2023/06/09 05:00:26;;;;;;;9.05;4.25;;;;;;;-142.57;86.39;115900.28;5053416;28;20033;-81
2023/06/09 05:02:54;;;;;;;7.95;4.45;;;;;;;-142.57;85.48;115900.28;5053946;28;20493;-80
2023/06/09 05:05:20;;;;;;;7.13;4.15;;;;;;;-142.57;86.32;115900.28;5053825;28;20360;-81
2023/06/09 05:07:46;;;;;;;9.07;4.72;;;;;;;-142.57;88.79;115900.28;5053587;28;20132;-80
2023/06/09 05:10:12;;;;;;;10.15;4.10;;;;;;;-142.57;90.67;115900.28;5055139;28;20091;-80
2023/06/09 05:12:39;;;;;;;14.60;4.80;;;;;;;-142.57;90.00;115900.28;5054182;28;20191;-80
2023/06/09 05:15:06;;;;;;;7.47;4.38;;;;;;;-142.57;90.70;115900.28;5071113;28;20048;-83
2023/06/09 05:17:33;;;;;;;13.35;4.28;;;;;;;-142.57;91.88;115900.28;5054004;28;20037;-83
2023/06/09 05:20:05;;;;;;;6.80;4.82;;;;;;;-142.57;94.98;115900.28;5057798;28;20358;-82
2023/06/09 05:22:32;;;;;;;8.82;4.63;;;;;;;-142.57;95.11;115900.28;5056809;28;20025;-81
2023/06/09 05:24:58;;;;;;;8.65;4.85;;;;;;;-142.57;96.66;115900.28;5058121;28;20040;-80
2023/06/09 05:27:24;;;;;;;11.75;5.07;;;;;;;-142.57;95.95;115900.28;5054538;28;20481;-81
2023/06/09 05:29:50;;;;;;;20.27;5.90;;;;;;;-142.57;94.45;115900.28;5069759;28;20126;-78
2023/06/09 05:32:16;;;;;;;12.48;6.82;;;;;;;-142.57;94.98;115900.28;5070172;28;20482;-84
2023/06/09 05:34:44;;;;;;;12.82;6.95;;;;;;;-142.57;95.00;115900.28;5053323;28;20044;-80
2023/06/09 05:37:13;;;;;;;12.52;6.85;;;;;;;-142.57;94.09;115900.28;5070226;28;20041;-84
2023/06/09 05:39:40;;;;;;;13.35;7.30;;;;;;;-142.57;93.54;115900.28;5053527;28;20470;-83
2023/06/09 05:42:07;;;;;;;12.25;7.78;;;;;;;-142.57;91.34;115900.28;5054553;28;20080;-82
2023/06/09 05:44:32;;;;;;;16.65;8.30;;;;;;;-142.57;93.13;115900.28;5054538;28;20446;-79
2023/06/09 05:46:58;;;;;;;12.65;8.13;;;;;;;-142.57;93.02;115900.28;5054439;28;20040;-81
2023/06/09 05:49:23;;;;;;;14.23;9.80;;;;;;;-142.57;92.64;115900.28;5054541;28;20045;-85
2023/06/09 05:51:49;;;;;;;16.27;9.05;;;;;;;-142.57;92.37;115900.28;5050032;28;20029;-78
2023/06/09 05:54:14;;;;;;;15.93;9.52;;;;;;;-142.57;93.32;115900.28;5053382;28;20033;-78
2023/06/09 05:56:40;;;;;;;16.45;10.07;;;;;;;-142.57;89.28;115900.28;5053288;28;20474;-79
2023/06/09 05:59:05;;;;;;;19.88;11.52;;;;;;;-142.57;88.75;115900.28;5053544;28;20056;-84
2023/06/09 06:01:32;;;;;;;22.35;12.88;;;;;;;-142.57;88.69;115900.28;5052963;28;20470;-81
2023/06/09 06:03:58;;;;;;;19.42;12.88;;;;;;;-142.57;87.18;115900.28;5053342;28;20084;-84
2023/06/09 06:06:24;;;;;;;15.70;11.02;;;;;;;-142.57;83.89;115900.28;5053103;28;20029;-81
2023/06/09 06:08:50;;;;;;;16.73;11.48;;;;;;;-142.57;83.26;115900.28;5054062;28;20113;-85
2023/06/09 06:11:15;;;;;;;22.55;12.63;;;;;;;-142.57;82.45;115900.28;5053830;28;20029;-83
2023/06/09 06:13:42;;;;;;;20.95;12.80;;;;;;;-142.57;79.97;115900.28;5053912;28;20037;-81
2023/06/09 06:16:08;;;;;;;19.95;14.25;;;;;;;-142.57;75.79;115900.28;5050016;28;20032;-83
2023/06/09 06:18:33;;;;;;;22.80;13.55;;;;;;;-142.57;73.79;115900.28;5042365;28;20037;-81
2023/06/09 06:20:59;;;;;;;18.17;12.88;;;;;;;-142.57;71.80;115900.28;5036370;28;20025;-82
2023/06/09 06:23:25;;;;;;;18.15;12.07;;;;;;;-142.57;69.22;115900.28;5053909;28;20040;-81
2023/06/09 06:25:50;;;;;;;18.33;12.60;;;;;;;-142.57;69.26;115900.28;5053570;28;20462;-83
2023/06/09 06:28:16;;;;;;;26.35;12.80;;;;;;;-142.57;69.80;115900.28;5053725;28;20045;-85
2023/06/09 06:30:42;;;;;;;21.63;12.98;;;;;;;-142.57;67.39;115900.28;5054258;28;20040;-84
2023/06/09 06:33:08;;;;;;;20.52;12.07;;;;;;;-142.57;68.45;115900.28;5053082;28;20044;-83
2023/06/09 06:35:34;;;;;;;16.77;12.50;;;;;;;-142.57;62.23;115900.28;5052924;28;20036;-83
2023/06/09 06:38:01;;;;;;;17.48;9.88;;;;;;;-142.57;53.93;115900.28;5053791;28;20124;-84
2023/06/09 06:40:27;;;;;;;28.90;15.40;;;;;;;-142.57;54.70;115900.28;5051673;28;20033;-81
2023/06/09 06:42:53;;;;;;;27.95;14.13;;;;;;;-142.57;55.24;115900.28;5054364;28;20033;-82
2023/06/09 06:45:28;;;;;;;22.98;15.38;;;;;;;-142.57;60.45;115900.28;5053072;28;20486;-79
2023/06/09 06:47:54;;;;;;;25.20;16.83;;;;;;;-142.57;62.08;115900.28;5054269;28;20039;-85
2023/06/09 06:50:20;;;;;;;22.95;15.18;;;;;;;-142.57;63.24;115900.28;5054282;28;20048;-83
2023/06/09 06:52:48;;;;;;;21.48;16.13;;;;;;;-142.57;65.23;115900.28;5069129;28;20060;-81
2023/06/09 06:55:14;;;;;;;27.08;15.60;;;;;;;-142.57;68.42;115900.28;5053519;28;20075;-81
2023/06/09 06:57:40;;;;;;;22.77;17.67;;;;;;;-142.57;68.06;115900.28;5054333;28;20033;-83
2023/06/09 07:00:12;;;;;;;23.15;15.80;;;;;;;-142.57;67.54;115900.28;5053033;28;20071;-85
2023/06/09 07:02:38;;;;;;;24.23;15.88;;;;;;;-142.57;65.09;115900.28;5053929;28;20033;-86
2023/06/09 07:05:06;;;;;;;23.38;16.65;;;;;;;-142.57;64.52;115900.28;5054130;28;20120;-83
2023/06/09 07:07:32;;;;;;;21.90;15.63;;;;;;;-142.57;64.14;115900.28;5054174;28;20025;-84
2023/06/09 07:09:57;;;;;;;23.45;17.58;;;;;;;-142.57;65.58;115900.28;5053479;28;20540;-79
2023/06/09 07:12:23;;;;;;;23.77;17.05;;;;;;;-142.57;64.90;115900.28;5053319;28;20072;-81
2023/06/09 07:14:48;;;;;;;24.50;18.20;;;;;;;-142.57;66.43;115900.28;5054218;28;20053;-81
2023/06/09 07:17:14;;;;;;;26.50;17.75;;;;;;;-142.57;65.62;115900.28;5053582;28;20037;-80
2023/06/09 07:19:40;;;;;;;29.02;18.10;;;;;;;-142.57;65.70;115900.28;5054362;28;20021;-81
2023/06/09 07:22:06;;;;;;;27.48;18.92;;;;;;;-142.57;66.21;115900.28;5053760;28;20486;-80
2023/06/09 07:24:32;;;;;;;28.05;17.67;;;;;;;-142.57;66.12;115900.28;5053384;28;20040;-81
2023/06/09 07:26:57;;;;;;;25.02;18.85;;;;;;;-142.57;64.94;115900.28;5052730;28;20079;-81
2023/06/09 07:29:23;;;;;;;27.98;17.17;;;;;;;-142.57;66.19;115900.28;5053893;28;20029;-84
2023/06/09 07:31:48;;;;;;;26.98;18.48;;;;;;;-142.57;63.86;115900.28;5053534;28;20106;-80
2023/06/09 07:34:14;;;;;;;26.90;18.65;;;;;;;-142.57;64.13;115900.28;5053450;28;20171;-82
2023/06/09 07:36:40;;;;;;;26.20;18.80;;;;;;;-142.57;63.06;115900.28;5053320;28;20454;-83
2023/06/09 07:39:06;;;;;;;25.27;17.85;;;;;;;-142.57;62.36;115900.28;5053667;28;20029;-84
2023/06/09 07:41:34;;;;;;;24.38;17.23;;;;;;;-142.57;62.48;115900.28;5055022;28;20682;-80
2023/06/09 07:44:00;;;;;;;28.40;18.10;;;;;;;-142.57;62.20;115900.28;5055428;28;20108;-83
2023/06/09 07:46:26;;;;;;;29.58;18.17;;;;;;;-142.57;63.29;115900.28;5053793;28;20512;-80
2023/06/09 07:48:51;;;;;;;29.02;18.83;;;;;;;-142.57;63.15;115900.28;5053935;28;20044;-82
2023/06/09 07:51:18;;;;;;;24.40;18.42;;;;;;;-142.57;58.71;115900.28;5053992;28;20021;-84
2023/06/09 07:53:44;;;;;;;26.73;18.58;;;;;;;-142.57;58.68;115900.28;5056194;28;20116;-83
2023/06/09 07:56:09;;;;;;;20.77;16.52;;;;;;;-142.57;58.03;115900.28;5057366;28;20563;-83
2023/06/09 07:58:36;;;;;;;27.00;18.48;;;;;;;-142.57;59.01;115900.28;5049662;28;20037;-82
2023/06/09 08:01:02;;;;;;;23.58;15.68;;;;;;;-142.57;58.05;115900.28;5054602;28;20064;-86
2023/06/09 08:03:29;;;;;;;26.52;17.77;;;;;;;-142.57;57.03;115900.28;5055927;28;20482;-84
2023/06/09 08:05:55;;;;;;;23.75;17.83;;;;;;;-142.57;59.08;115900.28;5052315;28;20482;-82
2023/06/09 08:08:21;;;;;;;25.15;15.88;;;;;;;-142.57;59.89;115900.28;5042786;28;20033;-82
2023/06/09 08:10:46;;;;;;;20.05;14.55;;;;;;;-142.57;59.55;115900.28;5054473;28;20025;-81
2023/06/09 08:13:15;;;;;;;19.05;14.70;;;;;;;-142.57;60.57;115900.28;5054124;28;20076;-83
2023/06/09 08:15:41;;;;;;;24.63;18.38;;;;;;;-142.57;60.19;115900.28;5056250;28;20017;-83
2023/06/09 08:18:06;;;;;;;24.13;17.58;;;;;;;-142.57;58.18;115900.28;5053291;28;20043;-82
2023/06/09 08:20:32;;;;;;;25.48;17.75;;;;;;;-142.57;58.11;115900.28;5055308;28;20025;-83
2023/06/09 08:22:57;;;;;;;23.33;15.55;;;;;;;-142.57;58.02;115900.28;5056165;28;20115;-85
2023/06/09 08:25:24;;;;;;;24.38;17.88;;;;;;;-142.57;58.08;115900.28;5055976;28;20052;-84
2023/06/09 08:27:49;;;;;;;22.80;14.40;;;;;;;-142.57;58.62;115900.28;5054208;28;20039;-82
2023/06/09 08:30:15;;;;;;;30.60;17.92;;;;;;;-142.57;59.08;115900.28;5055544;28;20029;-85
2023/06/09 08:32:40;;;;;;;24.60;15.13;;;;;;;-142.57;59.43;115900.28;5055050;28;20025;-83
2023/06/09 08:35:07;;;;;;;34.53;17.80;;;;;;;-142.57;60.36;115900.28;5055335;28;20125;-84
2023/06/09 08:37:33;;;;;;;24.27;18.45;;;;;;;-142.57;59.14;115900.28;5056831;28;20064;-84
2023/06/09 08:40:00;;;;;;;26.52;18.00;;;;;;;-142.57;58.89;115900.28;5057310;28;20454;-85
2023/06/09 08:42:30;;;;;;;32.70;18.52;;;;;;;-142.57;57.63;115900.28;5056506;28;20037;-85
2023/06/09 08:45:04;;;;;;;24.55;16.25;;;;;;;-142.57;57.45;115900.28;5055985;28;20097;-84
2023/06/09 08:47:32;;;;;;;26.35;17.95;;;;;;;-142.57;56.19;115900.28;5056841;28;20505;-85
2023/06/09 08:49:59;;;;;;;22.90;14.88;;;;;;;-142.57;56.79;115900.28;5056962;28;20033;-84
2023/06/09 08:52:25;;;;;;;22.17;15.15;;;;;;;-142.57;55.53;115900.28;5055782;28;20028;-86
2023/06/09 08:54:54;;;;;;;22.15;16.83;;;;;;;-142.57;53.80;115900.28;5056620;28;20094;-89
2023/06/09 08:57:21;;;;;;;27.58;17.55;;;;;;;-142.57;52.38;115900.28;5037448;28;20037;-85
2023/06/09 08:59:47;;;;;;;23.38;17.08;;;;;;;-142.57;50.29;115900.28;5050494;28;20100;-88
2023/06/09 09:02:13;;;;;;;21.15;16.38;;;;;;;-142.57;49.77;115900.28;5037383;28;20028;-85
2023/06/09 09:04:40;;;;;;;24.48;17.70;;;;;;;-142.57;51.38;115900.28;5034072;28;20045;-85
2023/06/09 09:07:09;;;;;;;23.60;15.93;;;;;;;-142.57;50.35;115900.28;5036659;28;20045;-86
2023/06/09 09:09:35;;;;;;;23.13;14.52;;;;;;;-142.57;50.11;115900.28;5036118;28;20032;-86
2023/06/09 09:12:04;;;;;;;21.85;16.23;;;;;;;-142.57;50.28;115900.28;5036123;28;20037;-84
2023/06/09 09:14:30;;;;;;;19.92;14.15;;;;;;;-142.57;51.51;115900.28;5036707;28;20029;-84
2023/06/09 09:16:56;;;;;;;23.77;16.23;;;;;;;-142.57;52.38;115900.28;5039053;28;20042;-86
2023/06/09 09:19:28;;;;;;;18.75;15.13;;;;;;;-142.57;51.85;115900.28;5036850;28;20029;-86
2023/06/09 09:21:55;;;;;;;20.48;13.70;;;;;;;-142.57;51.91;115900.28;5036903;28;20146;-84
2023/06/09 09:24:20;;;;;;;21.13;15.65;;;;;;;-142.57;48.74;115900.28;5036588;28;20048;-89
2023/06/09 09:26:46;;;;;;;21.55;14.55;;;;;;;-142.57;47.86;115900.28;5036234;28;20374;-87
2023/06/09 09:29:15;;;;;;;19.20;12.30;;;;;;;-142.57;47.15;115900.28;5055057;28;20041;-88
2023/06/09 09:31:41;;;;;;;17.65;13.20;;;;;;;-142.57;45.79;115900.28;5056956;28;20065;-87
2023/06/09 09:34:14;;;;;;;17.60;12.93;;;;;;;-142.57;45.61;115900.28;5056447;28;20098;-86
2023/06/09 09:36:43;;;;;;;23.38;12.98;;;;;;;-142.57;46.75;115900.28;5056317;28;20102;-84
2023/06/09 09:39:09;;;;;;;16.52;11.93;;;;;;;-142.57;45.58;115900.28;5054510;28;20025;-86
2023/06/09 09:41:34;;;;;;;20.95;14.35;;;;;;;-142.57;45.33;115900.28;5055209;28;20385;-85
2023/06/09 09:44:00;;;;;;;24.15;15.98;;;;;;;-142.57;47.39;115900.28;5054747;28;20541;-82
2023/06/09 09:46:25;;;;;;;19.85;13.07;;;;;;;-142.57;46.41;115900.28;5056064;28;20048;-84
2023/06/09 09:48:51;;;;;;;24.42;15.35;;;;;;;-142.57;45.90;115900.28;5056520;28;20037;-88
2023/06/09 09:51:21;;;;;;;23.23;15.60;;;;;;;-142.57;45.99;115900.28;5038894;28;20161;-86
2023/06/09 09:53:47;;;;;;;20.95;14.88;;;;;;;-142.57;46.71;115900.28;5055969;28;20044;-84
2023/06/09 09:56:15;;;;;;;27.27;16.10;;;;;;;-142.57;47.81;115900.28;5055461;28;20032;-83
2023/06/09 09:58:42;;;;;;;24.95;15.95;;;;;;;-142.57;47.99;115900.28;5054252;28;20033;-85
2023/06/09 10:01:11;;;;;;;21.95;13.85;;;;;;;-142.57;47.43;115900.28;5055771;28;20162;-85
2023/06/09 10:03:42;;;;;;;18.95;15.27;;;;;;;-142.57;47.86;115900.28;5037468;28;20025;-84
2023/06/09 10:06:10;;;;;;;20.23;13.83;;;;;;;-142.57;46.73;115900.28;5055520;28;20044;-84
2023/06/09 10:08:39;;;;;;;20.60;12.15;;;;;;;-142.57;46.23;115900.28;5055211;28;20033;-85
2023/06/09 10:11:06;;;;;;;25.17;14.82;;;;;;;-142.57;47.21;115900.28;5055352;28;20095;-83
2023/06/09 10:13:32;;;;;;;26.00;16.80;;;;;;;-142.57;47.35;115900.28;5054345;28;20037;-83
2023/06/09 10:15:58;;;;;;;22.20;17.10;;;;;;;-142.57;48.23;115900.28;5053760;28;20533;-82
2023/06/09 10:18:24;;;;;;;22.67;14.68;;;;;;;-142.57;48.06;115900.28;5053768;28;20036;-85
2023/06/09 10:20:52;;;;;;;23.70;15.57;;;;;;;-142.57;49.23;115900.28;5061236;28;20021;-84
2023/06/09 10:23:18;;;;;;;27.65;15.15;;;;;;;-142.57;48.00;115900.28;5053773;28;20040;-85
2023/06/09 10:25:50;;;;;;;22.83;16.88;;;;;;;-142.57;47.72;115900.28;5053685;28;20025;-81
2023/06/09 10:28:18;;;;;;;24.23;17.92;;;;;;;-142.57;47.34;115900.28;5053774;28;20098;-84
2023/06/09 10:30:48;;;;;;;26.10;17.65;;;;;;;-142.57;47.85;115900.28;5053444;28;20480;-84
2023/06/09 10:33:13;;;;;;;29.92;18.85;;;;;;;-142.57;49.25;115900.28;5053183;28;20545;-86
2023/06/09 10:35:41;;;;;;;24.25;18.27;;;;;;;-142.57;51.15;115900.28;5053703;28;20076;-85
2023/06/09 10:38:30;;;;;;;23.65;17.13;;;;;;;-142.57;52.02;115900.28;5053584;28;20095;-83
2023/06/09 10:41:10;;;;;;;27.92;18.20;;;;;;;-142.57;53.74;115900.28;5053275;28;20115;-85
2023/06/09 10:43:56;;;;;;;30.70;17.58;;;;;;;-142.57;54.72;115900.28;5053959;28;20148;-84
2023/06/09 10:46:44;;;;;;;21.05;15.68;;;;;;;-142.57;51.53;115900.28;5054292;28;20044;-85
2023/06/09 10:49:25;;;;;;;17.65;13.30;;;;;;;-142.57;48.82;115900.28;5053602;28;20048;-84
2023/06/09 10:51:51;;;;;;;21.30;14.55;;;;;;;-142.57;48.35;115900.28;5054437;28;20104;-86
2023/06/09 10:54:19;;;;;;;17.98;13.40;;;;;;;-142.57;47.46;115900.28;5053903;28;20029;-85
2023/06/09 10:56:52;;;;;;;12.70;10.73;;;;;;;-142.57;47.35;115900.28;5053377;28;20127;-85
2023/06/09 10:59:23;;;;;;;17.45;11.25;;;;;;;-142.57;45.82;115900.28;5053354;28;20041;-84
2023/06/09 11:02:05;;;;;;;18.10;10.60;;;;;;;-142.57;44.97;115900.28;5053912;28;20531;-86